PWSweather.com
Personal Weather Stations
Station Observations
KMICHEBO10
Cordwood Point, Lake Huron, Cheboygan, MI 49721

Cordwood Point, Lake HuronCheboygan, MI 49721

Lat: 45.663372, Lon: -84.3327789

Elevation: 584

Station Type: Davis Vantage Pro2 Wireless

http://www.lakehuronweather.org

High Low Average
Temperature 80.7°F27.1°C 56.9°F13.8°C 68.7°F20.4°C
Dew Point 64.6°F18.1°C 52.0°F11.1°C 57.4°F14.1°C
Winds Calm Calm Calm Calm Calm SCalm S
Wind Gusts -- -- --
Humidity 89% 40% 69%
Pressure 30.16 in1021.3 mb 30.07 in1018.3 mb -
Precipitation 0.00 in0.0 mm - -
Hour Temp Dew Point Humidity Winds Wind Gusts Pressure Precip Precip Rate Daily Precip Total
12:00 AM 64.1°F17.8°C 55.7°F13.2°C 74% Calm Calm -- 30.07 in1018.3 mb - 0.00 in0.0 mm 0.00 in0.0 mm
12:10 AM 63.9°F17.7°C 55.4°F13.0°C 74% Calm Calm -- 30.07 in1018.3 mb - 0.00 in0.0 mm 0.00 in0.0 mm
12:20 AM 63.6°F17.6°C 55.2°F12.9°C 74% Calm Calm -- 30.07 in1018.3 mb - 0.00 in0.0 mm 0.00 in0.0 mm
12:30 AM 63.4°F17.4°C 55.0°F12.8°C 74% Calm Calm -- 30.07 in1018.3 mb - 0.00 in0.0 mm 0.00 in0.0 mm
12:40 AM 63.1°F17.3°C 55.0°F12.8°C 75% Calm Calm -- 30.07 in1018.3 mb - 0.00 in0.0 mm 0.00 in0.0 mm
12:50 AM 62.9°F17.2°C 54.9°F12.7°C 75% Calm Calm -- 30.07 in1018.3 mb - 0.00 in0.0 mm 0.00 in0.0 mm
01:00 AM 62.7°F17.1°C 54.7°F12.6°C 75% Calm Calm -- 30.07 in1018.3 mb - 0.00 in0.0 mm 0.00 in0.0 mm
01:10 AM 62.5°F16.9°C 54.8°F12.7°C 76% Calm Calm -- 30.07 in1018.3 mb - 0.00 in0.0 mm 0.00 in0.0 mm
01:20 AM 62.3°F16.8°C 54.6°F12.6°C 76% Calm Calm -- 30.07 in1018.3 mb - 0.00 in0.0 mm 0.00 in0.0 mm
01:30 AM 62.3°F16.8°C 54.6°F12.6°C 76% Calm Calm -- 30.08 in1018.6 mb - 0.00 in0.0 mm 0.00 in0.0 mm
01:40 AM 62.2°F16.8°C 54.9°F12.7°C 77% Calm Calm -- 30.08 in1018.6 mb - 0.00 in0.0 mm 0.00 in0.0 mm
01:50 AM 62.0°F16.7°C 54.7°F12.6°C 77% Calm Calm -- 30.08 in1018.6 mb - 0.00 in0.0 mm 0.00 in0.0 mm
02:00 AM 61.9°F16.6°C 54.6°F12.6°C 77% Calm Calm -- 30.09 in1019.0 mb - 0.00 in0.0 mm 0.00 in0.0 mm
02:10 AM 61.8°F16.6°C 54.8°F12.7°C 78% Calm Calm -- 30.09 in1019.0 mb - 0.00 in0.0 mm 0.00 in0.0 mm
02:20 AM 61.6°F16.4°C 55.0°F12.8°C 79% Calm Calm -- 30.09 in1019.0 mb - 0.00 in0.0 mm 0.00 in0.0 mm
02:30 AM 61.5°F16.4°C 55.3°F12.9°C 80% Calm Calm -- 30.09 in1019.0 mb - 0.00 in0.0 mm 0.00 in0.0 mm
02:40 AM 61.4°F16.3°C 55.2°F12.9°C 80% Calm Calm -- 30.09 in1019.0 mb - 0.00 in0.0 mm 0.00 in0.0 mm
02:50 AM 61.0°F16.1°C 54.8°F12.7°C 80% Calm Calm -- 30.08 in1018.6 mb - 0.00 in0.0 mm 0.00 in0.0 mm
03:00 AM 60.5°F15.8°C 54.6°F12.6°C 81% Calm Calm -- 30.09 in1019.0 mb - 0.00 in0.0 mm 0.00 in0.0 mm
03:10 AM 60.1°F15.6°C 54.6°F12.6°C 82% Calm Calm -- 30.09 in1019.0 mb - 0.00 in0.0 mm 0.00 in0.0 mm
03:20 AM 59.7°F15.4°C 54.9°F12.7°C 84% Calm Calm -- 30.09 in1019.0 mb - 0.00 in0.0 mm 0.00 in0.0 mm
03:30 AM 59.3°F15.2°C 54.4°F12.4°C 84% Calm Calm -- 30.09 in1019.0 mb - 0.00 in0.0 mm 0.00 in0.0 mm
03:40 AM 58.9°F14.9°C 54.1°F12.3°C 84% Calm Calm -- 30.09 in1019.0 mb - 0.00 in0.0 mm 0.00 in0.0 mm
03:50 AM 58.6°F14.8°C 54.1°F12.3°C 85% Calm Calm -- 30.10 in1019.3 mb - 0.00 in0.0 mm 0.00 in0.0 mm
04:00 AM 58.3°F14.6°C 54.1°F12.3°C 86% Calm Calm -- 30.10 in1019.3 mb - 0.00 in0.0 mm 0.00 in0.0 mm
04:10 AM 58.1°F14.5°C 53.9°F12.2°C 86% Calm Calm -- 30.11 in1019.6 mb - 0.00 in0.0 mm 0.00 in0.0 mm
04:20 AM 57.9°F14.4°C 53.7°F12.1°C 86% Calm Calm -- 30.11 in1019.6 mb - 0.00 in0.0 mm 0.00 in0.0 mm
04:30 AM 57.7°F14.3°C 53.9°F12.2°C 87% Calm Calm -- 30.11 in1019.6 mb - 0.00 in0.0 mm 0.00 in0.0 mm
04:40 AM 57.5°F14.2°C 53.6°F12.0°C 87% Calm Calm -- 30.11 in1019.6 mb - 0.00 in0.0 mm 0.00 in0.0 mm
04:50 AM 57.3°F14.1°C 53.8°F12.1°C 88% Calm Calm -- 30.12 in1020.0 mb - 0.00 in0.0 mm 0.00 in0.0 mm
05:00 AM 57.1°F13.9°C 53.6°F12.0°C 88% Calm Calm -- 30.12 in1020.0 mb - 0.00 in0.0 mm 0.00 in0.0 mm
05:10 AM 57.0°F13.9°C 53.5°F11.9°C 88% Calm Calm -- 30.11 in1019.6 mb - 0.00 in0.0 mm 0.00 in0.0 mm
05:20 AM 56.9°F13.8°C 53.7°F12.1°C 89% Calm Calm -- 30.12 in1020.0 mb - 0.00 in0.0 mm 0.00 in0.0 mm
05:30 AM 56.9°F13.8°C 53.7°F12.1°C 89% Calm Calm -- 30.12 in1020.0 mb - 0.00 in0.0 mm 0.00 in0.0 mm
05:40 AM 57.0°F13.9°C 53.8°F12.1°C 89% Calm Calm -- 30.12 in1020.0 mb - 0.00 in0.0 mm 0.00 in0.0 mm
05:50 AM 57.1°F13.9°C 53.9°F12.2°C 89% Calm Calm -- 30.12 in1020.0 mb - 0.00 in0.0 mm 0.00 in0.0 mm
06:00 AM 57.2°F14.0°C 54.0°F12.2°C 89% Calm Calm -- 30.12 in1020.0 mb - 0.00 in0.0 mm 0.00 in0.0 mm
06:10 AM 57.5°F14.2°C 54.3°F12.4°C 89% Calm Calm -- 30.12 in1020.0 mb - 0.00 in0.0 mm 0.00 in0.0 mm
06:20 AM 57.8°F14.3°C 54.6°F12.6°C 89% Calm Calm -- 30.12 in1020.0 mb - 0.00 in0.0 mm 0.00 in0.0 mm
06:30 AM 58.2°F14.6°C 54.7°F12.6°C 88% Calm Calm -- 30.12 in1020.0 mb - 0.00 in0.0 mm 0.00 in0.0 mm
06:40 AM 58.7°F14.8°C 55.1°F12.8°C 88% Calm Calm -- 30.11 in1019.6 mb - 0.00 in0.0 mm 0.00 in0.0 mm
06:50 AM 59.3°F15.2°C 56.1°F13.4°C 89% Calm Calm -- 30.12 in1020.0 mb - 0.00 in0.0 mm 0.00 in0.0 mm
07:00 AM 60.1°F15.6°C 56.5°F13.6°C 88% Calm Calm -- 30.12 in1020.0 mb - 0.00 in0.0 mm 0.00 in0.0 mm
07:10 AM 60.9°F16.1°C 57.4°F14.1°C 88% Calm Calm -- 30.12 in1020.0 mb - 0.00 in0.0 mm 0.00 in0.0 mm
07:20 AM 62.2°F16.8°C 58.2°F14.6°C 87% Calm Calm -- 30.13 in1020.3 mb - 0.00 in0.0 mm 0.00 in0.0 mm
07:30 AM 63.0°F17.2°C 58.7°F14.8°C 86% Calm Calm -- 30.13 in1020.3 mb - 0.00 in0.0 mm 0.00 in0.0 mm
07:40 AM 63.9°F17.7°C 59.0°F15.0°C 84% Calm Calm -- 30.13 in1020.3 mb - 0.00 in0.0 mm 0.00 in0.0 mm
07:50 AM 64.7°F18.2°C 59.1°F15.1°C 82% Calm Calm -- 30.13 in1020.3 mb - 0.00 in0.0 mm 0.00 in0.0 mm
08:00 AM 65.3°F18.5°C 60.0°F15.6°C 83% Calm Calm -- 30.14 in1020.7 mb - 0.00 in0.0 mm 0.00 in0.0 mm
08:10 AM 65.7°F18.7°C 60.1°F15.6°C 82% Calm Calm -- 30.14 in1020.7 mb - 0.00 in0.0 mm 0.00 in0.0 mm
08:20 AM 66.1°F18.9°C 60.4°F15.8°C 82% Calm Calm -- 30.14 in1020.7 mb - 0.00 in0.0 mm 0.00 in0.0 mm
08:30 AM 66.4°F19.1°C 60.0°F15.6°C 80% Calm Calm -- 30.15 in1021.0 mb - 0.00 in0.0 mm 0.00 in0.0 mm
08:40 AM 66.6°F19.2°C 59.9°F15.5°C 79% Calm Calm -- 30.15 in1021.0 mb - 0.00 in0.0 mm 0.00 in0.0 mm
08:50 AM 66.9°F19.4°C 60.1°F15.6°C 79% Calm Calm -- 30.15 in1021.0 mb - 0.00 in0.0 mm 0.00 in0.0 mm
09:00 AM 67.6°F19.8°C 59.7°F15.4°C 76% Calm Calm -- 30.15 in1021.0 mb - 0.00 in0.0 mm 0.00 in0.0 mm
09:10 AM 68.2°F20.1°C 59.6°F15.3°C 74% Calm Calm -- 30.14 in1020.7 mb - 0.00 in0.0 mm 0.00 in0.0 mm
09:20 AM 68.6°F20.3°C 59.9°F15.5°C 74% Calm Calm -- 30.15 in1021.0 mb - 0.00 in0.0 mm 0.00 in0.0 mm
09:30 AM 69.2°F20.7°C 60.2°F15.7°C 73% Calm Calm -- 30.15 in1021.0 mb - 0.00 in0.0 mm 0.00 in0.0 mm
09:40 AM 69.8°F21.0°C 60.7°F15.9°C 73% Calm Calm -- 30.15 in1021.0 mb - 0.00 in0.0 mm 0.00 in0.0 mm
09:50 AM 70.4°F21.3°C 61.0°F16.1°C 72% Calm Calm -- 30.16 in1021.3 mb - 0.00 in0.0 mm 0.00 in0.0 mm
10:00 AM 70.8°F21.6°C 60.5°F15.8°C 70% Calm Calm -- 30.16 in1021.3 mb - 0.00 in0.0 mm 0.00 in0.0 mm
10:10 AM 71.0°F21.7°C 60.8°F16.0°C 70% Calm Calm -- 30.16 in1021.3 mb - 0.00 in0.0 mm 0.00 in0.0 mm
10:20 AM 71.2°F21.8°C 60.9°F16.1°C 70% Calm Calm -- 30.16 in1021.3 mb - 0.00 in0.0 mm 0.00 in0.0 mm
10:30 AM 71.7°F22.1°C 61.0°F16.1°C 69% Calm Calm -- 30.16 in1021.3 mb - 0.00 in0.0 mm 0.00 in0.0 mm
10:40 AM 72.1°F22.3°C 61.0°F16.1°C 68% Calm Calm -- 30.16 in1021.3 mb - 0.00 in0.0 mm 0.00 in0.0 mm
10:50 AM 72.2°F22.3°C 61.0°F16.1°C 68% Calm Calm -- 30.16 in1021.3 mb - 0.00 in0.0 mm 0.00 in0.0 mm
11:00 AM 72.8°F22.7°C 60.3°F15.7°C 65% Calm Calm -- 30.15 in1021.0 mb - 0.00 in0.0 mm 0.00 in0.0 mm
11:10 AM 73.0°F22.8°C 60.9°F16.1°C 66% Calm Calm -- 30.15 in1021.0 mb - 0.00 in0.0 mm 0.00 in0.0 mm
11:20 AM 73.4°F23.0°C 61.7°F16.5°C 67% Calm Calm -- 30.15 in1021.0 mb - 0.00 in0.0 mm 0.00 in0.0 mm
11:30 AM 73.9°F23.3°C 62.3°F16.8°C 67% Calm Calm -- 30.15 in1021.0 mb - 0.00 in0.0 mm 0.00 in0.0 mm
11:40 AM 74.2°F23.4°C 62.1°F16.7°C 66% Calm Calm -- 30.16 in1021.3 mb - 0.00 in0.0 mm 0.00 in0.0 mm
11:50 AM 74.8°F23.8°C 63.1°F17.3°C 67% Calm Calm -- 30.16 in1021.3 mb - 0.00 in0.0 mm 0.00 in0.0 mm
12:00 PM 75.3°F24.1°C 63.2°F17.3°C 66% Calm Calm -- 30.16 in1021.3 mb - 0.00 in0.0 mm 0.00 in0.0 mm
12:10 PM 75.3°F24.1°C 63.6°F17.6°C 67% Calm Calm -- 30.15 in1021.0 mb - 0.00 in0.0 mm 0.00 in0.0 mm
12:20 PM 75.3°F24.1°C 63.6°F17.6°C 67% Calm Calm -- 30.15 in1021.0 mb - 0.00 in0.0 mm 0.00 in0.0 mm
12:30 PM 76.2°F24.6°C 61.7°F16.5°C 61% Calm Calm -- 30.14 in1020.7 mb - 0.00 in0.0 mm 0.00 in0.0 mm
12:40 PM 76.3°F24.6°C 63.7°F17.6°C 65% Calm Calm -- 30.15 in1021.0 mb - 0.00 in0.0 mm 0.00 in0.0 mm
12:50 PM 76.7°F24.8°C 64.5°F18.1°C 66% Calm Calm -- 30.15 in1021.0 mb - 0.00 in0.0 mm 0.00 in0.0 mm
01:00 PM 76.8°F24.9°C 64.6°F18.1°C 66% Calm Calm -- 30.15 in1021.0 mb - 0.00 in0.0 mm 0.00 in0.0 mm
01:10 PM 77.9°F25.5°C 63.8°F17.7°C 62% Calm Calm -- 30.15 in1021.0 mb - 0.00 in0.0 mm 0.00 in0.0 mm
01:20 PM 78.3°F25.7°C 63.7°F17.6°C 61% Calm Calm -- 30.14 in1020.7 mb - 0.00 in0.0 mm 0.00 in0.0 mm
01:30 PM 78.2°F25.7°C 64.1°F17.8°C 62% Calm Calm -- 30.14 in1020.7 mb - 0.00 in0.0 mm 0.00 in0.0 mm
01:40 PM 78.9°F26.1°C 63.8°F17.7°C 60% Calm Calm -- 30.14 in1020.7 mb - 0.00 in0.0 mm 0.00 in0.0 mm
01:50 PM 78.6°F25.9°C 61.6°F16.4°C 56% Calm Calm -- 30.14 in1020.7 mb - 0.00 in0.0 mm 0.00 in0.0 mm
02:00 PM 78.6°F25.9°C 59.5°F15.3°C 52% Calm Calm -- 30.14 in1020.7 mb - 0.00 in0.0 mm 0.00 in0.0 mm
02:10 PM 79.6°F26.4°C 55.8°F13.2°C 44% Calm Calm -- 30.13 in1020.3 mb - 0.00 in0.0 mm 0.00 in0.0 mm
02:20 PM 79.5°F26.4°C 53.7°F12.1°C 41% Calm Calm -- 30.13 in1020.3 mb - 0.00 in0.0 mm 0.00 in0.0 mm
02:30 PM 79.9°F26.6°C 53.4°F11.9°C 40% Calm Calm -- 30.13 in1020.3 mb - 0.00 in0.0 mm 0.00 in0.0 mm
02:40 PM 80.0°F26.7°C 57.4°F14.1°C 46% Calm Calm -- 30.13 in1020.3 mb - 0.00 in0.0 mm 0.00 in0.0 mm
02:50 PM 80.2°F26.8°C 57.5°F14.2°C 46% Calm Calm -- 30.12 in1020.0 mb - 0.00 in0.0 mm 0.00 in0.0 mm
03:00 PM 80.7°F27.1°C 60.9°F16.1°C 51% Calm Calm -- 30.12 in1020.0 mb - 0.00 in0.0 mm 0.00 in0.0 mm
03:10 PM 80.2°F26.8°C 58.7°F14.8°C 48% Calm Calm -- 30.12 in1020.0 mb - 0.00 in0.0 mm 0.00 in0.0 mm
03:20 PM 80.3°F26.8°C 58.3°F14.6°C 47% Calm Calm -- 30.11 in1019.6 mb - 0.00 in0.0 mm 0.00 in0.0 mm
03:30 PM 80.3°F26.8°C 59.4°F15.2°C 49% Calm Calm -- 30.11 in1019.6 mb - 0.00 in0.0 mm 0.00 in0.0 mm
03:40 PM 79.8°F26.6°C 57.8°F14.3°C 47% Calm Calm -- 30.11 in1019.6 mb - 0.00 in0.0 mm 0.00 in0.0 mm
03:50 PM 78.9°F26.1°C 57.0°F13.9°C 47% Calm Calm -- 30.11 in1019.6 mb - 0.00 in0.0 mm 0.00 in0.0 mm
04:00 PM 78.8°F26.0°C 56.3°F13.5°C 46% Calm Calm -- 30.10 in1019.3 mb - 0.00 in0.0 mm 0.00 in0.0 mm
04:10 PM 78.7°F25.9°C 55.6°F13.1°C 45% Calm Calm -- 30.10 in1019.3 mb - 0.00 in0.0 mm 0.00 in0.0 mm
04:20 PM 78.0°F25.6°C 54.9°F12.7°C 45% Calm Calm -- 30.10 in1019.3 mb - 0.00 in0.0 mm 0.00 in0.0 mm
04:30 PM 77.4°F25.2°C 56.8°F13.8°C 49% Calm Calm -- 30.09 in1019.0 mb - 0.00 in0.0 mm 0.00 in0.0 mm
04:40 PM 77.0°F25.0°C 57.5°F14.2°C 51% Calm Calm -- 30.09 in1019.0 mb - 0.00 in0.0 mm 0.00 in0.0 mm
04:50 PM 76.8°F24.9°C 57.9°F14.4°C 52% Calm Calm -- 30.09 in1019.0 mb - 0.00 in0.0 mm 0.00 in0.0 mm
05:00 PM 77.6°F25.3°C 58.0°F14.4°C 51% Calm Calm -- 30.09 in1019.0 mb - 0.00 in0.0 mm 0.00 in0.0 mm
05:10 PM 77.7°F25.4°C 58.1°F14.5°C 51% Calm Calm -- 30.09 in1019.0 mb - 0.00 in0.0 mm 0.00 in0.0 mm
05:20 PM 77.2°F25.1°C 59.8°F15.4°C 55% Calm Calm -- 30.09 in1019.0 mb - 0.00 in0.0 mm 0.00 in0.0 mm
05:30 PM 76.5°F24.7°C 57.6°F14.2°C 52% Calm Calm -- 30.09 in1019.0 mb - 0.00 in0.0 mm 0.00 in0.0 mm
05:40 PM 76.5°F24.7°C 56.5°F13.6°C 50% Calm Calm -- 30.09 in1019.0 mb - 0.00 in0.0 mm 0.00 in0.0 mm
05:50 PM 76.9°F24.9°C 52.7°F11.5°C 43% Calm Calm -- 30.09 in1019.0 mb - 0.00 in0.0 mm 0.00 in0.0 mm
06:00 PM 77.2°F25.1°C 53.0°F11.7°C 43% Calm Calm -- 30.09 in1019.0 mb - 0.00 in0.0 mm 0.00 in0.0 mm
06:10 PM 77.3°F25.2°C 54.9°F12.7°C 46% Calm Calm -- 30.09 in1019.0 mb - 0.00 in0.0 mm 0.00 in0.0 mm
06:20 PM 77.3°F25.2°C 57.2°F14.0°C 50% Calm Calm -- 30.09 in1019.0 mb - 0.00 in0.0 mm 0.00 in0.0 mm
06:30 PM 76.9°F24.9°C 61.0°F16.1°C 58% Calm Calm -- 30.09 in1019.0 mb - 0.00 in0.0 mm 0.00 in0.0 mm
06:40 PM 76.4°F24.7°C 62.9°F17.2°C 63% Calm Calm -- 30.09 in1019.0 mb - 0.00 in0.0 mm 0.00 in0.0 mm
06:50 PM 75.6°F24.2°C 63.0°F17.2°C 65% Calm Calm -- 30.09 in1019.0 mb - 0.00 in0.0 mm 0.00 in0.0 mm
07:00 PM 75.1°F23.9°C 59.8°F15.4°C 59% Calm Calm -- 30.09 in1019.0 mb - 0.00 in0.0 mm 0.00 in0.0 mm
07:10 PM 74.9°F23.8°C 62.8°F17.1°C 66% Calm Calm -- 30.08 in1018.6 mb - 0.00 in0.0 mm 0.00 in0.0 mm
07:20 PM 74.5°F23.6°C 61.1°F16.2°C 63% Calm Calm -- 30.08 in1018.6 mb - 0.00 in0.0 mm 0.00 in0.0 mm
07:30 PM 74.2°F23.4°C 59.4°F15.2°C 60% Calm Calm -- 30.08 in1018.6 mb - 0.00 in0.0 mm 0.00 in0.0 mm
07:40 PM 74.0°F23.3°C 56.8°F13.8°C 55% Calm Calm -- 30.08 in1018.6 mb - 0.00 in0.0 mm 0.00 in0.0 mm
07:50 PM 73.7°F23.2°C 56.5°F13.6°C 55% Calm Calm -- 30.08 in1018.6 mb - 0.00 in0.0 mm 0.00 in0.0 mm
08:00 PM 73.1°F22.8°C 54.4°F12.4°C 52% Calm Calm -- 30.09 in1019.0 mb - 0.00 in0.0 mm 0.00 in0.0 mm
08:10 PM 72.5°F22.5°C 52.8°F11.6°C 50% Calm Calm -- 30.09 in1019.0 mb - 0.00 in0.0 mm 0.00 in0.0 mm
08:20 PM 71.7°F22.1°C 53.1°F11.7°C 52% Calm Calm -- 30.09 in1019.0 mb - 0.00 in0.0 mm 0.00 in0.0 mm
08:30 PM 70.8°F21.6°C 52.8°F11.6°C 53% Calm Calm -- 30.09 in1019.0 mb - 0.00 in0.0 mm 0.00 in0.0 mm
08:40 PM 70.0°F21.1°C 52.6°F11.4°C 54% Calm Calm -- 30.09 in1019.0 mb - 0.00 in0.0 mm 0.00 in0.0 mm
08:50 PM 69.3°F20.7°C 52.0°F11.1°C 54% Calm Calm -- 30.10 in1019.3 mb - 0.00 in0.0 mm 0.00 in0.0 mm
09:00 PM 68.8°F20.4°C 52.5°F11.4°C 56% Calm Calm -- 30.11 in1019.6 mb - 0.00 in0.0 mm 0.00 in0.0 mm
09:10 PM 68.4°F20.2°C 53.1°F11.7°C 58% Calm Calm -- 30.11 in1019.6 mb - 0.00 in0.0 mm 0.00 in0.0 mm
09:20 PM 68.1°F20.1°C 54.1°F12.3°C 61% Calm Calm -- 30.11 in1019.6 mb - 0.00 in0.0 mm 0.00 in0.0 mm
09:30 PM 67.6°F19.8°C 55.0°F12.8°C 64% Calm Calm -- 30.12 in1020.0 mb - 0.00 in0.0 mm 0.00 in0.0 mm
09:40 PM 67.1°F19.5°C 55.8°F13.2°C 67% Calm Calm -- 30.12 in1020.0 mb - 0.00 in0.0 mm 0.00 in0.0 mm
09:50 PM 66.7°F19.3°C 56.6°F13.7°C 70% Calm Calm -- 30.12 in1020.0 mb - 0.00 in0.0 mm 0.00 in0.0 mm
10:00 PM 66.3°F19.1°C 57.4°F14.1°C 73% Calm Calm -- 30.12 in1020.0 mb - 0.00 in0.0 mm 0.00 in0.0 mm
10:10 PM 65.8°F18.8°C 57.3°F14.1°C 74% Calm Calm -- 30.12 in1020.0 mb - 0.00 in0.0 mm 0.00 in0.0 mm
10:20 PM 65.3°F18.5°C 57.5°F14.2°C 76% Calm Calm -- 30.11 in1019.6 mb - 0.00 in0.0 mm 0.00 in0.0 mm
10:30 PM 64.9°F18.3°C 58.2°F14.6°C 79% Calm Calm -- 30.11 in1019.6 mb - 0.00 in0.0 mm 0.00 in0.0 mm
10:40 PM 64.6°F18.1°C 58.6°F14.8°C 81% Calm Calm -- 30.11 in1019.6 mb - 0.00 in0.0 mm 0.00 in0.0 mm
10:50 PM 64.1°F17.8°C 58.1°F14.5°C 81% Calm Calm -- 30.11 in1019.6 mb - 0.00 in0.0 mm 0.00 in0.0 mm
11:00 PM 63.7°F17.6°C 58.1°F14.5°C 82% Calm Calm -- 30.11 in1019.6 mb - 0.00 in0.0 mm 0.00 in0.0 mm
11:10 PM 63.3°F17.4°C 57.7°F14.3°C 82% Calm Calm -- 30.11 in1019.6 mb - 0.00 in0.0 mm 0.00 in0.0 mm
11:20 PM 63.1°F17.3°C 57.5°F14.2°C 82% Calm Calm -- 30.11 in1019.6 mb - 0.00 in0.0 mm 0.00 in0.0 mm
11:30 PM 62.9°F17.2°C 57.0°F13.9°C 81% Calm Calm -- 30.11 in1019.6 mb - 0.00 in0.0 mm 0.00 in0.0 mm
11:40 PM 62.8°F17.1°C 56.5°F13.6°C 80% Calm Calm -- 30.11 in1019.6 mb - 0.00 in0.0 mm 0.00 in0.0 mm
11:50 PM 62.6°F17.0°C 56.0°F13.3°C 79% Calm Calm -- 30.11 in1019.6 mb - 0.00 in0.0 mm 0.00 in0.0 mm